createdAt,value
2017-08-29T00:00:07.626Z,1007.38
2017-08-29T00:01:07.649Z,1007.39
2017-08-29T00:02:07.673Z,1007.4
2017-08-29T00:03:07.695Z,1007.38
2017-08-29T00:04:07.718Z,1007.4
2017-08-29T00:05:07.741Z,1007.36
2017-08-29T00:06:07.765Z,1007.36
2017-08-29T00:07:07.786Z,1007.41
2017-08-29T00:08:07.809Z,1007.4
2017-08-29T00:09:07.832Z,1007.39
2017-08-29T00:10:07.854Z,1007.39
2017-08-29T00:11:07.877Z,1007.39
2017-08-29T00:12:07.901Z,1007.39
2017-08-29T00:13:07.923Z,1007.38
2017-08-29T00:14:07.945Z,1007.38
2017-08-29T00:15:07.969Z,1007.31
2017-08-29T00:16:07.990Z,1007.31
2017-08-29T00:17:08.014Z,1007.31
2017-08-29T00:18:08.035Z,1007.31
2017-08-29T00:19:08.060Z,1007.3
2017-08-29T00:20:08.082Z,1007.27
2017-08-29T00:21:08.103Z,1007.22
2017-08-29T00:22:08.127Z,1007.22
2017-08-29T00:23:08.150Z,1007.22
2017-08-29T00:24:08.173Z,1007.22
2017-08-29T00:25:08.194Z,1007.21
2017-08-29T00:26:08.217Z,1007.23
2017-08-29T00:27:08.245Z,1007.24
2017-08-29T00:28:08.263Z,1007.22
2017-08-29T00:29:08.284Z,1007.21
2017-08-29T00:30:08.309Z,1007.19
2017-08-29T00:31:08.330Z,1007.18
2017-08-29T00:32:08.352Z,1007.18
2017-08-29T00:33:08.375Z,1007.21
2017-08-29T00:34:08.398Z,1007.21
2017-08-29T00:35:08.420Z,1007.21
2017-08-29T00:36:08.442Z,1007.21
2017-08-29T00:37:08.466Z,1007.16
2017-08-29T00:38:08.487Z,1007.15
2017-08-29T00:39:08.510Z,1007.17
2017-08-29T00:40:08.531Z,1007.15
2017-08-29T00:41:08.554Z,1007.14
2017-08-29T00:42:08.577Z,1007.15
2017-08-29T00:43:08.598Z,1007.15
2017-08-29T00:44:08.622Z,1007.11
2017-08-29T00:45:08.645Z,1007.14
2017-08-29T00:46:08.667Z,1007.11
2017-08-29T00:47:08.689Z,1007.07
2017-08-29T00:48:08.714Z,1007.07
2017-08-29T00:49:08.733Z,1007.05
2017-08-29T00:50:08.756Z,1007.04
2017-08-29T00:51:08.778Z,1007.03
2017-08-29T00:52:08.801Z,1007.06
2017-08-29T00:53:08.823Z,1007.04
2017-08-29T00:54:08.845Z,1007.05
2017-08-29T00:55:08.868Z,1007.03
2017-08-29T00:56:08.890Z,1007.03
2017-08-29T00:57:08.912Z,1007.05
2017-08-29T00:58:08.934Z,1007.01
2017-08-29T00:59:08.957Z,1006.97
2017-08-29T01:00:08.978Z,1006.99
2017-08-29T01:01:09.000Z,1006.96
2017-08-29T01:02:09.023Z,1006.97
2017-08-29T01:03:09.042Z,1006.93
2017-08-29T01:04:09.065Z,1006.95
2017-08-29T01:05:09.088Z,1006.92
2017-08-29T01:06:09.110Z,1006.91
2017-08-29T01:07:09.154Z,1006.91
2017-08-29T01:08:09.155Z,1006.86
2017-08-29T01:09:09.175Z,1006.89
2017-08-29T01:10:09.200Z,1006.85
2017-08-29T01:11:09.221Z,1006.8
2017-08-29T01:12:09.244Z,1006.85
2017-08-29T01:13:09.264Z,1006.82
2017-08-29T01:14:09.288Z,1006.82
2017-08-29T01:15:09.309Z,1006.85
2017-08-29T01:16:09.330Z,1006.84
2017-08-29T01:17:09.353Z,1006.85
2017-08-29T01:18:09.376Z,1006.86
2017-08-29T01:19:09.399Z,1006.83
2017-08-29T01:20:09.420Z,1006.86
2017-08-29T01:21:09.445Z,1006.84
2017-08-29T01:22:09.465Z,1006.83
2017-08-29T01:23:09.486Z,1006.79
2017-08-29T01:24:09.515Z,1006.85
2017-08-29T01:25:09.532Z,1006.86
2017-08-29T01:26:09.555Z,1006.83
2017-08-29T01:27:09.625Z,1006.85
2017-08-29T01:28:09.597Z,1006.8
2017-08-29T01:29:09.618Z,1006.81
2017-08-29T01:30:09.642Z,1006.75
2017-08-29T01:31:09.663Z,1006.81
2017-08-29T01:32:09.684Z,1006.74
2017-08-29T01:33:09.708Z,1006.74
2017-08-29T01:34:09.729Z,1006.71
2017-08-29T01:35:09.751Z,1006.72
2017-08-29T01:36:09.773Z,1006.7
2017-08-29T01:37:09.826Z,1006.67
2017-08-29T01:38:09.817Z,1006.66
2017-08-29T01:39:09.838Z,1006.62
2017-08-29T01:40:09.862Z,1006.6
2017-08-29T01:41:09.885Z,1006.61
2017-08-29T01:42:09.904Z,1006.61
2017-08-29T01:43:09.928Z,1006.61
2017-08-29T01:44:09.948Z,1006.62
2017-08-29T01:45:09.971Z,1006.56
2017-08-29T01:46:09.994Z,1006.53
2017-08-29T01:47:10.014Z,1006.56
2017-08-29T01:48:10.038Z,1006.52
2017-08-29T01:49:10.057Z,1006.51
2017-08-29T01:50:10.080Z,1006.48
2017-08-29T01:51:10.102Z,1006.5
2017-08-29T01:52:10.127Z,1006.5
2017-08-29T01:53:10.146Z,1006.51
2017-08-29T01:54:10.166Z,1006.5
2017-08-29T01:55:10.190Z,1006.52
2017-08-29T01:56:10.211Z,1006.52
2017-08-29T01:57:10.268Z,1006.53
2017-08-29T01:58:10.255Z,1006.51
2017-08-29T01:59:10.276Z,1006.56
2017-08-29T02:00:10.297Z,1006.52
2017-08-29T02:01:10.319Z,1006.49
2017-08-29T02:02:10.341Z,1006.49
2017-08-29T02:03:10.364Z,1006.49
2017-08-29T02:04:10.386Z,1006.5
2017-08-29T02:05:10.408Z,1006.46
2017-08-29T02:06:10.429Z,1006.5
2017-08-29T02:07:10.449Z,1006.5
2017-08-29T02:08:10.471Z,1006.52
2017-08-29T02:09:10.494Z,1006.52
2017-08-29T02:10:10.516Z,1006.52
2017-08-29T02:11:10.536Z,1006.53
2017-08-29T02:12:10.599Z,1006.56
2017-08-29T02:13:10.579Z,1006.5
2017-08-29T02:14:10.605Z,1006.53
2017-08-29T02:15:10.623Z,1006.48
2017-08-29T02:16:10.645Z,1006.5
2017-08-29T02:17:10.667Z,1006.5
2017-08-29T02:18:10.691Z,1006.5
2017-08-29T02:19:10.709Z,1006.53
2017-08-29T02:20:10.732Z,1006.46
2017-08-29T02:21:10.754Z,1006.51
2017-08-29T02:22:10.775Z,1006.52
2017-08-29T02:23:10.798Z,1006.46
2017-08-29T02:24:10.820Z,1006.5
2017-08-29T02:25:10.839Z,1006.49
2017-08-29T02:26:10.862Z,1006.44
2017-08-29T02:27:10.882Z,1006.47
2017-08-29T02:28:10.904Z,1006.47
2017-08-29T02:29:10.926Z,1006.47
2017-08-29T02:30:10.949Z,1006.51
2017-08-29T02:31:10.969Z,1006.49
2017-08-29T02:32:10.991Z,1006.48
2017-08-29T02:33:11.014Z,1006.48
2017-08-29T02:34:11.033Z,1006.45
2017-08-29T02:35:11.054Z,1006.5
2017-08-29T02:36:11.078Z,1006.48
2017-08-29T02:37:11.099Z,1006.49
2017-08-29T02:38:11.119Z,1006.5
2017-08-29T02:39:11.142Z,1006.5
2017-08-29T02:40:11.165Z,1006.49
2017-08-29T02:41:11.183Z,1006.53
2017-08-29T02:42:11.205Z,1006.43
2017-08-29T02:43:11.239Z,1006.49
2017-08-29T02:44:11.250Z,1006.48
2017-08-29T02:45:11.275Z,1006.49
2017-08-29T02:46:11.292Z,1006.51
2017-08-29T02:47:11.314Z,1006.51
2017-08-29T02:48:11.334Z,1006.49
2017-08-29T02:49:11.356Z,1006.5
2017-08-29T02:50:11.378Z,1006.49
2017-08-29T02:51:11.404Z,1006.51
2017-08-29T02:52:11.420Z,1006.48
2017-08-29T02:53:11.441Z,1006.49
2017-08-29T02:54:11.466Z,1006.52
2017-08-29T02:55:11.483Z,1006.48
2017-08-29T02:56:11.506Z,1006.46
2017-08-29T02:57:11.527Z,1006.45
2017-08-29T02:58:11.549Z,1006.47
2017-08-29T02:59:11.571Z,1006.44
2017-08-29T03:00:11.592Z,1006.45
2017-08-29T03:01:11.615Z,1006.44
2017-08-29T03:02:11.773Z,1006.43
2017-08-29T03:03:11.656Z,1006.44
2017-08-29T03:04:11.678Z,1006.43
2017-08-29T03:05:11.698Z,1006.42
2017-08-29T03:06:11.721Z,1006.42
2017-08-29T03:07:11.744Z,1006.41
2017-08-29T03:08:11.765Z,1006.42
2017-08-29T03:09:11.783Z,1006.44
2017-08-29T03:10:11.804Z,1006.42
2017-08-29T03:11:11.826Z,1006.44
2017-08-29T03:12:11.849Z,1006.43
2017-08-29T03:13:11.869Z,1006.41
2017-08-29T03:14:11.891Z,1006.42
2017-08-29T03:15:11.936Z,1006.4
2017-08-29T03:16:11.940Z,1006.42
2017-08-29T03:17:11.953Z,1006.39
2017-08-29T03:18:11.976Z,1006.43
2017-08-29T03:19:11.998Z,1006.4
2017-08-29T03:20:12.018Z,1006.44
2017-08-29T03:21:12.040Z,1006.4
2017-08-29T03:22:12.060Z,1006.41
2017-08-29T03:23:12.084Z,1006.38
2017-08-29T03:24:12.103Z,1006.41
2017-08-29T03:25:12.127Z,1006.39
2017-08-29T03:26:12.145Z,1006.4
2017-08-29T03:27:12.194Z,1006.37
2017-08-29T03:28:12.188Z,1006.37
2017-08-29T03:29:12.210Z,1006.34
2017-08-29T03:30:12.230Z,1006.31
2017-08-29T03:31:12.251Z,1006.33
2017-08-29T03:32:12.272Z,1006.34
2017-08-29T03:33:12.293Z,1006.35
2017-08-29T03:34:12.315Z,1006.35
2017-08-29T03:35:12.335Z,1006.35
2017-08-29T03:36:12.357Z,1006.34
2017-08-29T03:37:12.377Z,1006.35
2017-08-29T03:38:12.402Z,1006.34
2017-08-29T03:39:12.419Z,1006.33
2017-08-29T03:40:12.441Z,1006.36
2017-08-29T03:41:12.464Z,1006.35
2017-08-29T03:42:12.483Z,1006.34
2017-08-29T03:43:12.505Z,1006.32
2017-08-29T03:44:12.526Z,1006.34
2017-08-29T03:45:12.548Z,1006.33
2017-08-29T03:46:12.571Z,1006.33
2017-08-29T03:47:12.591Z,1006.36
2017-08-29T03:48:12.611Z,1006.37
2017-08-29T03:49:12.631Z,1006.34
2017-08-29T03:50:12.652Z,1006.4
2017-08-29T03:51:12.673Z,1006.41
2017-08-29T03:52:12.695Z,1006.39
2017-08-29T03:53:12.715Z,1006.4
2017-08-29T03:54:12.738Z,1006.41
2017-08-29T03:55:12.757Z,1006.44
2017-08-29T03:56:12.781Z,1006.44
2017-08-29T03:57:12.799Z,1006.42
2017-08-29T03:58:12.822Z,1006.47
2017-08-29T03:59:12.843Z,1006.47
2017-08-29T04:00:12.863Z,1006.45
2017-08-29T04:01:12.883Z,1006.43
2017-08-29T04:02:12.905Z,1006.42
2017-08-29T04:03:12.926Z,1006.4
2017-08-29T04:04:12.946Z,1006.45
2017-08-29T04:05:12.967Z,1006.39
2017-08-29T04:06:12.989Z,1006.44
2017-08-29T04:07:13.011Z,1006.4
2017-08-29T04:08:13.030Z,1006.43
2017-08-29T04:09:13.052Z,1006.42
2017-08-29T04:10:13.073Z,1006.45
2017-08-29T04:11:13.094Z,1006.43
2017-08-29T04:12:13.114Z,1006.42
2017-08-29T04:13:13.136Z,1006.43
2017-08-29T04:14:13.156Z,1006.42
2017-08-29T04:15:13.178Z,1006.46
2017-08-29T04:16:13.197Z,1006.44
2017-08-29T04:17:13.220Z,1006.44
2017-08-29T04:18:13.245Z,1006.39
2017-08-29T04:19:13.259Z,1006.41
2017-08-29T04:20:13.282Z,1006.41
2017-08-29T04:21:13.303Z,1006.42
2017-08-29T04:22:13.329Z,1006.41
2017-08-29T04:23:13.345Z,1006.42
2017-08-29T04:24:13.367Z,1006.42
2017-08-29T04:25:13.388Z,1006.39
2017-08-29T04:26:13.407Z,1006.4
2017-08-29T04:27:13.427Z,1006.38
2017-08-29T04:28:13.455Z,1006.4
2017-08-29T04:29:13.470Z,1006.39
2017-08-29T04:30:13.489Z,1006.42
2017-08-29T04:31:13.512Z,1006.44
2017-08-29T04:32:13.532Z,1006.42
2017-08-29T04:33:13.553Z,1006.44
2017-08-29T04:34:13.575Z,1006.43
2017-08-29T04:35:13.596Z,1006.44
2017-08-29T04:36:13.617Z,1006.47
2017-08-29T04:37:13.638Z,1006.4
2017-08-29T04:38:13.658Z,1006.43
2017-08-29T04:39:13.678Z,1006.43
2017-08-29T04:40:13.700Z,1006.43
2017-08-29T04:41:13.720Z,1006.42
2017-08-29T04:42:13.741Z,1006.44
2017-08-29T04:43:13.764Z,1006.44
2017-08-29T04:44:13.783Z,1006.42
2017-08-29T04:45:13.804Z,1006.41
2017-08-29T04:46:13.826Z,1006.43
2017-08-29T04:47:13.848Z,1006.43
2017-08-29T04:48:13.865Z,1006.47
2017-08-29T04:49:13.888Z,1006.44
2017-08-29T04:50:13.907Z,1006.41
2017-08-29T04:51:13.931Z,1006.41
2017-08-29T04:52:13.949Z,1006.4
2017-08-29T04:53:13.971Z,1006.34
2017-08-29T04:54:13.991Z,1006.35
2017-08-29T04:55:14.012Z,1006.32
2017-08-29T04:56:14.032Z,1006.31
2017-08-29T04:57:14.053Z,1006.29
2017-08-29T04:58:14.073Z,1006.27
2017-08-29T04:59:14.094Z,1006.28
2017-08-29T05:00:14.115Z,1006.25
2017-08-29T05:01:14.137Z,1006.23
2017-08-29T05:02:14.157Z,1006.2
2017-08-29T05:05:00.326Z,1006.16
2017-08-29T05:06:00.277Z,1006.23
2017-08-29T05:07:00.296Z,1006.21
2017-08-29T05:08:00.317Z,1006.17
2017-08-29T05:09:00.337Z,1006.14
2017-08-29T05:10:00.450Z,1006.13
2017-08-29T05:11:00.378Z,1006.15
2017-08-29T05:12:00.402Z,1006.1
2017-08-29T05:13:00.422Z,1006.12
2017-08-29T05:14:00.442Z,1006.11
2017-08-29T05:15:00.460Z,1006.1
2017-08-29T05:16:00.483Z,1006.1
2017-08-29T05:17:00.504Z,1006.04
2017-08-29T05:18:00.524Z,1006.09
2017-08-29T05:19:00.545Z,1006.08
2017-08-29T05:20:00.575Z,1006.09
2017-08-29T05:21:00.587Z,1006.04
2017-08-29T05:22:00.613Z,1006.09
2017-08-29T05:23:00.628Z,1006.08
2017-08-29T05:24:00.649Z,1006.07
2017-08-29T05:25:00.671Z,1006.1
2017-08-29T05:26:00.697Z,1006.12
2017-08-29T05:27:00.711Z,1006.1
2017-08-29T05:28:00.739Z,1006.12
2017-08-29T05:29:00.751Z,1006.17
2017-08-29T05:30:00.774Z,1006.07
2017-08-29T05:31:00.792Z,1006.11
2017-08-29T05:32:00.813Z,1006.14
2017-08-29T05:33:00.833Z,1006.13
2017-08-29T05:34:00.859Z,1006.13
2017-08-29T05:35:00.876Z,1006.09
2017-08-29T05:36:00.911Z,1006.11
2017-08-29T05:37:00.918Z,1006.11
2017-08-29T05:38:00.939Z,1006.12
2017-08-29T05:39:00.958Z,1006.12
2017-08-29T05:40:00.980Z,1006.12
2017-08-29T05:41:01.000Z,1006.12
2017-08-29T05:42:01.030Z,1006.14
2017-08-29T05:43:01.043Z,1006.15
2017-08-29T05:44:01.067Z,1006.16
2017-08-29T05:45:01.084Z,1006.15
2017-08-29T05:46:01.105Z,1006.12
2017-08-29T05:47:01.125Z,1006.14
2017-08-29T05:48:01.153Z,1006.14
2017-08-29T05:49:01.168Z,1006.11
2017-08-29T05:50:01.190Z,1006.13
2017-08-29T05:51:01.208Z,1006.13
2017-08-29T05:52:01.229Z,1006.12
2017-08-29T05:53:01.251Z,1006.14
2017-08-29T05:54:01.270Z,1006.17
2017-08-29T05:55:01.291Z,1006.13
2017-08-29T05:56:01.330Z,1006.13
2017-08-29T05:57:01.334Z,1006.13
2017-08-29T05:58:01.353Z,1006.14
2017-08-29T05:59:01.374Z,1006.09
2017-08-29T06:00:01.396Z,1006.09
2017-08-29T06:01:01.416Z,1006.09
2017-08-29T06:02:01.436Z,1006.05
2017-08-29T06:03:01.456Z,1006.1
2017-08-29T06:04:01.483Z,1006.1
2017-08-29T06:05:01.497Z,1006.09
2017-08-29T06:06:01.518Z,1006.08
2017-08-29T06:07:01.540Z,1006.11
2017-08-29T06:08:01.561Z,1006.11
2017-08-29T06:09:01.582Z,1006.11
2017-08-29T06:10:01.607Z,1006.07
2017-08-29T06:11:01.622Z,1006.06
2017-08-29T06:12:01.643Z,1006.02
2017-08-29T06:13:01.662Z,1006.06
2017-08-29T06:14:01.685Z,1006.06
2017-08-29T06:15:01.705Z,1006.06
2017-08-29T06:16:01.726Z,1006.04
2017-08-29T06:17:01.747Z,1006.05
2017-08-29T06:18:01.767Z,1006
2017-08-29T06:19:01.790Z,1006.02
2017-08-29T06:20:01.843Z,1005.99
2017-08-29T06:21:01.832Z,1005.98
2017-08-29T06:22:01.852Z,1005.97
2017-08-29T06:23:01.872Z,1005.99
2017-08-29T06:24:01.893Z,1005.95
2017-08-29T06:25:01.914Z,1005.95
2017-08-29T06:26:01.933Z,1005.98
2017-08-29T06:27:01.954Z,1005.97
2017-08-29T06:28:01.974Z,1005.97
2017-08-29T06:29:01.995Z,1005.96
2017-08-29T06:30:02.019Z,1005.93
2017-08-29T06:31:02.037Z,1005.9
2017-08-29T06:32:02.059Z,1005.88
2017-08-29T06:33:02.080Z,1005.9
2017-08-29T06:34:02.103Z,1005.87
2017-08-29T06:35:02.120Z,1005.84
2017-08-29T06:36:02.142Z,1005.88
2017-08-29T06:37:02.164Z,1005.9
2017-08-29T06:38:02.185Z,1005.88
2017-08-29T06:39:02.205Z,1005.92
2017-08-29T06:40:02.232Z,1005.89
2017-08-29T06:41:02.248Z,1005.94
2017-08-29T06:42:02.269Z,1005.89
2017-08-29T06:43:02.287Z,1005.87
2017-08-29T06:44:02.311Z,1005.89
2017-08-29T06:45:02.331Z,1005.87
2017-08-29T06:46:02.350Z,1005.87
2017-08-29T06:47:02.373Z,1005.87
2017-08-29T06:48:02.402Z,1005.83
2017-08-29T06:49:02.414Z,1005.85
2017-08-29T06:50:02.434Z,1005.8
2017-08-29T06:51:02.457Z,1005.78
2017-08-29T06:52:02.481Z,1005.82
2017-08-29T06:53:02.498Z,1005.79
2017-08-29T06:54:02.520Z,1005.82
2017-08-29T06:55:02.547Z,1005.82
2017-08-29T06:56:02.562Z,1005.8
2017-08-29T06:57:02.586Z,1005.81
2017-08-29T06:58:02.605Z,1005.8
2017-08-29T06:59:02.629Z,1005.77
2017-08-29T07:00:02.647Z,1005.81
2017-08-29T07:01:02.667Z,1005.81
2017-08-29T07:02:02.690Z,1005.81
2017-08-29T07:03:02.712Z,1005.81
2017-08-29T07:04:02.732Z,1005.75
2017-08-29T07:05:02.752Z,1005.77
2017-08-29T07:06:02.774Z,1005.78
2017-08-29T07:07:02.801Z,1005.8
2017-08-29T07:08:02.814Z,1005.73
2017-08-29T07:09:02.839Z,1005.74
2017-08-29T07:10:02.858Z,1005.74
2017-08-29T07:11:02.878Z,1005.7
2017-08-29T07:12:02.900Z,1005.72
2017-08-29T07:13:02.924Z,1005.71
2017-08-29T07:14:02.945Z,1005.68
2017-08-29T07:15:02.964Z,1005.68
2017-08-29T07:16:03.048Z,1005.71
2017-08-29T07:17:03.008Z,1005.66
2017-08-29T07:18:03.029Z,1005.69
2017-08-29T07:19:03.051Z,1005.67
2017-08-29T07:20:03.074Z,1005.68
2017-08-29T07:21:03.095Z,1005.7
2017-08-29T07:22:03.121Z,1005.67
2017-08-29T07:23:03.141Z,1005.66
2017-08-29T07:24:03.160Z,1005.68
2017-08-29T07:25:03.180Z,1005.67
2017-08-29T07:26:03.203Z,1005.68
2017-08-29T07:27:03.226Z,1005.69
2017-08-29T07:28:03.247Z,1005.69
2017-08-29T07:29:03.266Z,1005.7
2017-08-29T07:30:03.288Z,1005.74
2017-08-29T07:31:03.309Z,1005.7
2017-08-29T07:32:03.331Z,1005.71
2017-08-29T07:33:03.353Z,1005.7
2017-08-29T07:34:03.375Z,1005.69
2017-08-29T07:35:03.396Z,1005.66
2017-08-29T07:36:03.419Z,1005.68
2017-08-29T07:37:03.438Z,1005.71
2017-08-29T07:38:03.462Z,1005.7
2017-08-29T07:39:03.482Z,1005.74
2017-08-29T07:40:03.506Z,1005.69
2017-08-29T07:41:03.528Z,1005.69
2017-08-29T07:42:03.555Z,1005.67
2017-08-29T07:43:03.572Z,1005.69
2017-08-29T07:44:03.591Z,1005.65
2017-08-29T07:45:03.614Z,1005.71
2017-08-29T07:46:03.636Z,1005.66
2017-08-29T07:47:03.659Z,1005.67
2017-08-29T07:48:03.681Z,1005.69
2017-08-29T07:49:03.704Z,1005.74
2017-08-29T07:50:03.725Z,1005.71
2017-08-29T07:51:03.754Z,1005.73
2017-08-29T07:52:03.768Z,1005.72
2017-08-29T07:53:03.794Z,1005.72
2017-08-29T07:54:03.813Z,1005.72
2017-08-29T07:55:03.833Z,1005.74
2017-08-29T07:56:03.858Z,1005.67
2017-08-29T07:57:03.879Z,1005.75
2017-08-29T07:58:03.903Z,1005.7
2017-08-29T07:59:03.926Z,1005.72
2017-08-29T08:00:03.952Z,1005.74
2017-08-29T08:01:03.968Z,1005.71
2017-08-29T08:02:03.990Z,1005.71
2017-08-29T08:03:04.013Z,1005.74
2017-08-29T08:04:04.036Z,1005.76
2017-08-29T08:05:04.060Z,1005.72
2017-08-29T08:06:04.082Z,1005.76
2017-08-29T08:07:04.103Z,1005.72
2017-08-29T08:08:04.129Z,1005.7
2017-08-29T08:09:04.149Z,1005.67
2017-08-29T08:10:04.172Z,1005.67
2017-08-29T08:11:04.194Z,1005.68
2017-08-29T08:12:04.216Z,1005.71
2017-08-29T08:13:04.238Z,1005.72
2017-08-29T08:14:04.260Z,1005.72
2017-08-29T08:15:04.284Z,1005.7
2017-08-29T08:16:04.307Z,1005.72
2017-08-29T08:17:04.329Z,1005.73
2017-08-29T08:18:04.350Z,1005.77
2017-08-29T08:19:04.377Z,1005.71
2017-08-29T08:20:04.400Z,1005.75
2017-08-29T08:21:04.421Z,1005.73
2017-08-29T08:22:04.444Z,1005.74
2017-08-29T08:23:04.468Z,1005.71
2017-08-29T08:24:04.487Z,1005.71
2017-08-29T08:25:04.512Z,1005.66
2017-08-29T08:26:04.538Z,1005.64
2017-08-29T08:27:04.558Z,1005.66
2017-08-29T08:28:04.581Z,1005.63
2017-08-29T08:29:04.605Z,1005.66
2017-08-29T08:30:04.636Z,1005.64
2017-08-29T08:31:04.651Z,1005.63
2017-08-29T08:32:04.676Z,1005.63
2017-08-29T08:33:04.696Z,1005.67
2017-08-29T08:34:04.722Z,1005.64
2017-08-29T08:35:04.743Z,1005.7
2017-08-29T08:36:04.767Z,1005.67
2017-08-29T08:37:04.792Z,1005.68
2017-08-29T08:38:04.814Z,1005.68
2017-08-29T08:39:04.836Z,1005.66
2017-08-29T08:40:04.862Z,1005.66
2017-08-29T08:41:04.883Z,1005.69
2017-08-29T08:42:04.907Z,1005.64
2017-08-29T08:43:04.934Z,1005.66
2017-08-29T08:44:04.978Z,1005.65
2017-08-29T08:45:04.978Z,1005.67
2017-08-29T08:46:05.001Z,1005.58
2017-08-29T08:47:05.024Z,1005.62
2017-08-29T08:48:05.048Z,1005.59
2017-08-29T08:49:05.072Z,1005.58
2017-08-29T08:50:05.096Z,1005.62
2017-08-29T08:51:05.120Z,1005.6
2017-08-29T08:52:05.144Z,1005.54
2017-08-29T08:53:05.169Z,1005.53
2017-08-29T08:54:05.192Z,1005.51
2017-08-29T08:55:05.216Z,1005.52
2017-08-29T08:56:05.240Z,1005.49
2017-08-29T08:57:05.274Z,1005.5
2017-08-29T08:58:05.287Z,1005.48
2017-08-29T08:59:05.311Z,1005.47
2017-08-29T09:00:05.337Z,1005.44
2017-08-29T09:01:05.359Z,1005.45
2017-08-29T09:02:05.384Z,1005.44
2017-08-29T09:03:05.409Z,1005.46
2017-08-29T09:04:05.433Z,1005.49
2017-08-29T09:05:05.457Z,1005.47
2017-08-29T09:06:05.481Z,1005.51
2017-08-29T09:07:05.505Z,1005.47
2017-08-29T09:08:05.532Z,1005.5
2017-08-29T09:09:05.555Z,1005.47
2017-08-29T09:10:05.578Z,1005.46
2017-08-29T09:11:05.602Z,1005.45
2017-08-29T09:12:05.626Z,1005.47
2017-08-29T09:13:05.702Z,1005.48
2017-08-29T09:14:05.677Z,1005.47
2017-08-29T09:15:05.701Z,1005.49
2017-08-29T09:16:05.728Z,1005.5
2017-08-29T09:17:05.751Z,1005.5
2017-08-29T09:18:05.794Z,1005.48
2017-08-29T09:19:05.897Z,1005.43
2017-08-29T09:20:05.823Z,1005.46
2017-08-29T09:21:05.849Z,1005.45
2017-08-29T09:22:05.874Z,1005.43
2017-08-29T09:23:05.900Z,1005.47
2017-08-29T09:24:05.925Z,1005.45
2017-08-29T09:25:05.948Z,1005.48
2017-08-29T09:26:05.973Z,1005.44
2017-08-29T09:27:05.998Z,1005.44
2017-08-29T09:28:06.022Z,1005.42
2017-08-29T09:29:06.049Z,1005.38
2017-08-29T09:30:06.075Z,1005.38
2017-08-29T09:31:06.098Z,1005.42
2017-08-29T09:32:06.123Z,1005.37
2017-08-29T09:33:06.151Z,1005.37
2017-08-29T09:34:06.179Z,1005.32
2017-08-29T09:35:06.199Z,1005.34
2017-08-29T09:36:06.226Z,1005.35
2017-08-29T09:37:06.250Z,1005.34
2017-08-29T09:38:06.277Z,1005.3
2017-08-29T09:39:06.301Z,1005.27
2017-08-29T09:40:06.330Z,1005.25
2017-08-29T09:41:06.352Z,1005.23
2017-08-29T09:42:06.378Z,1005.27
2017-08-29T09:43:06.404Z,1005.23
2017-08-29T09:44:06.428Z,1005.26
2017-08-29T09:45:06.455Z,1005.2
2017-08-29T09:46:06.489Z,1005.25
2017-08-29T09:47:06.508Z,1005.25
2017-08-29T09:48:06.530Z,1005.25
2017-08-29T09:49:06.557Z,1005.27
2017-08-29T09:50:06.584Z,1005.24
2017-08-29T09:51:06.610Z,1005.24
2017-08-29T09:52:06.633Z,1005.26
2017-08-29T09:53:06.662Z,1005.27
2017-08-29T09:54:06.687Z,1005.26
2017-08-29T09:55:06.715Z,1005.24
2017-08-29T09:56:06.739Z,1005.27
2017-08-29T09:57:06.766Z,1005.25
2017-08-29T09:58:06.793Z,1005.26
2017-08-29T09:59:06.819Z,1005.29
2017-08-29T10:00:06.843Z,1005.26
2017-08-29T10:01:06.870Z,1005.25
2017-08-29T10:02:06.896Z,1005.26
2017-08-29T10:03:06.922Z,1005.27
2017-08-29T10:04:06.949Z,1005.23
2017-08-29T10:05:06.976Z,1005.21
2017-08-29T10:06:07.008Z,1005.22
2017-08-29T10:07:07.028Z,1005.21
2017-08-29T10:08:07.055Z,1005.19
2017-08-29T10:09:07.083Z,1005.19
2017-08-29T10:10:07.107Z,1005.15
2017-08-29T10:11:07.135Z,1005.13
2017-08-29T10:12:07.161Z,1005.18
2017-08-29T10:13:07.189Z,1005.19
2017-08-29T10:14:07.215Z,1005.17
2017-08-29T10:15:07.243Z,1005.16
2017-08-29T10:16:07.269Z,1005.1
2017-08-29T10:17:07.297Z,1005.13
2017-08-29T10:18:07.321Z,1005.11
2017-08-29T10:19:07.350Z,1005.04
2017-08-29T10:20:07.376Z,1005.04
2017-08-29T10:21:07.404Z,1005.03
2017-08-29T10:22:07.431Z,1004.99
2017-08-29T10:23:07.458Z,1004.98
2017-08-29T10:24:07.485Z,1004.97
2017-08-29T10:25:07.513Z,1004.99
2017-08-29T10:26:07.550Z,1004.97
2017-08-29T10:27:07.567Z,1004.98
2017-08-29T10:28:07.595Z,1005.01
2017-08-29T10:29:07.621Z,1004.94
2017-08-29T10:30:07.649Z,1004.94
2017-08-29T10:31:07.679Z,1004.93
2017-08-29T10:32:07.705Z,1004.97
2017-08-29T10:33:07.732Z,1004.95
2017-08-29T10:34:07.760Z,1004.92
2017-08-29T10:35:07.787Z,1004.9
2017-08-29T10:36:07.815Z,1004.91
2017-08-29T10:37:07.842Z,1004.89
2017-08-29T10:38:07.872Z,1004.92
2017-08-29T10:39:07.898Z,1004.88
2017-08-29T10:40:07.927Z,1004.89
2017-08-29T10:41:07.954Z,1004.89
2017-08-29T10:42:07.982Z,1004.88
2017-08-29T10:43:08.010Z,1004.85
2017-08-29T10:44:08.037Z,1004.87
2017-08-29T10:45:08.069Z,1004.84
2017-08-29T10:46:08.093Z,1004.82
2017-08-29T10:47:08.121Z,1004.84
2017-08-29T10:48:08.161Z,1004.82
2017-08-29T10:49:08.182Z,1004.85
2017-08-29T10:50:08.208Z,1004.86
2017-08-29T10:51:08.235Z,1004.87
2017-08-29T10:52:08.266Z,1004.88
2017-08-29T10:53:08.291Z,1004.84
2017-08-29T10:54:08.318Z,1004.83
2017-08-29T10:55:08.349Z,1004.82
2017-08-29T10:56:08.376Z,1004.77
2017-08-29T10:57:08.407Z,1004.81
2017-08-29T10:58:08.434Z,1004.77
2017-08-29T10:59:08.462Z,1004.76
2017-08-29T11:00:08.495Z,1004.76
2017-08-29T11:01:08.521Z,1004.76
2017-08-29T11:02:08.550Z,1004.79
2017-08-29T11:03:08.578Z,1004.73
2017-08-29T11:04:08.628Z,1004.73
2017-08-29T11:05:08.635Z,1004.7
2017-08-29T11:06:08.663Z,1004.68
2017-08-29T11:07:08.693Z,1004.66
2017-08-29T11:08:08.722Z,1004.69
2017-08-29T11:09:08.749Z,1004.64
2017-08-29T11:10:08.779Z,1004.66
2017-08-29T11:11:08.809Z,1004.66
2017-08-29T11:12:08.837Z,1004.71
2017-08-29T11:13:08.866Z,1004.71
2017-08-29T11:14:08.896Z,1004.71
2017-08-29T11:15:08.924Z,1004.7
2017-08-29T11:16:08.954Z,1004.69
2017-08-29T11:17:08.984Z,1004.65
2017-08-29T11:18:09.012Z,1004.63
2017-08-29T11:19:09.041Z,1004.64
2017-08-29T11:20:09.071Z,1004.59
2017-08-29T11:21:09.101Z,1004.59
2017-08-29T11:22:09.130Z,1004.56
2017-08-29T11:23:09.158Z,1004.55
2017-08-29T11:24:09.189Z,1004.57
2017-08-29T11:25:09.235Z,1004.6
2017-08-29T11:26:09.249Z,1004.6
2017-08-29T11:27:09.277Z,1004.56
2017-08-29T11:28:09.307Z,1004.53
2017-08-29T11:29:09.335Z,1004.53
2017-08-29T11:30:09.365Z,1004.54
2017-08-29T11:31:09.395Z,1004.58
2017-08-29T11:32:09.424Z,1004.54
2017-08-29T11:33:09.455Z,1004.57
2017-08-29T11:34:09.484Z,1004.53
2017-08-29T11:35:09.516Z,1004.5
2017-08-29T11:36:09.543Z,1004.52
2017-08-29T11:37:09.581Z,1004.5
2017-08-29T11:38:09.604Z,1004.51
2017-08-29T11:39:09.634Z,1004.48
2017-08-29T11:40:09.665Z,1004.51
2017-08-29T11:41:09.719Z,1004.48
2017-08-29T11:42:09.725Z,1004.5
2017-08-29T11:43:09.755Z,1004.53
2017-08-29T11:44:09.785Z,1004.47
2017-08-29T11:45:09.814Z,1004.46
2017-08-29T11:46:09.847Z,1004.46
2017-08-29T11:47:09.876Z,1004.46
2017-08-29T11:48:09.905Z,1004.43
2017-08-29T11:49:09.937Z,1004.4
2017-08-29T11:50:09.967Z,1004.38
2017-08-29T11:51:09.999Z,1004.35
2017-08-29T11:52:10.028Z,1004.33
2017-08-29T11:53:10.057Z,1004.32
2017-08-29T11:54:10.088Z,1004.32
2017-08-29T11:55:10.122Z,1004.27
2017-08-29T11:56:10.149Z,1004.22
2017-08-29T11:57:10.181Z,1004.26
2017-08-29T11:58:10.210Z,1004.26
2017-08-29T11:59:10.292Z,1004.27
2017-08-29T12:00:10.271Z,1004.26
2017-08-29T12:01:10.303Z,1004.27
2017-08-29T12:02:10.332Z,1004.24
2017-08-29T12:03:10.366Z,1004.25
2017-08-29T12:04:10.396Z,1004.2
2017-08-29T12:05:10.426Z,1004.17
2017-08-29T12:06:10.457Z,1004.19
2017-08-29T12:07:10.488Z,1004.17
2017-08-29T12:08:10.521Z,1004.15
2017-08-29T12:09:10.552Z,1004.11
2017-08-29T12:10:10.581Z,1004.11